createdAt,value
2022-11-29T00:01:05.109Z,80.26
2022-11-29T00:03:31.899Z,80.18
2022-11-29T00:06:04.486Z,79.73
2022-11-29T00:08:31.178Z,79.46
2022-11-29T00:10:57.857Z,79.40
2022-11-29T00:13:24.580Z,79.12
2022-11-29T00:15:51.192Z,79.63
2022-11-29T00:18:17.875Z,80.18
2022-11-29T00:20:44.545Z,79.94
2022-11-29T00:23:11.509Z,79.23
2022-11-29T00:25:38.716Z,79.61
2022-11-29T00:28:05.379Z,80.22
2022-11-29T00:30:32.036Z,79.26
2022-11-29T00:32:58.843Z,79.30
2022-11-29T00:35:25.519Z,80.36
2022-11-29T00:37:52.133Z,79.53
2022-11-29T00:40:18.809Z,79.26
2022-11-29T00:42:45.389Z,79.73
2022-11-29T00:45:12.255Z,79.94
2022-11-29T00:47:38.845Z,80.04
2022-11-29T00:50:06.503Z,79.95
2022-11-29T00:52:33.229Z,79.85
2022-11-29T00:54:59.834Z,79.95
2022-11-29T00:57:26.497Z,79.97
2022-11-29T00:59:53.120Z,80.23
2022-11-29T01:02:19.874Z,80.60
2022-11-29T01:04:46.882Z,80.79
2022-11-29T01:07:13.793Z,80.82
2022-11-29T01:09:40.507Z,80.70
2022-11-29T01:12:07.415Z,81.09
2022-11-29T01:14:34.074Z,80.31
2022-11-29T01:17:00.705Z,79.89
2022-11-29T01:19:27.387Z,80.04
2022-11-29T01:21:54.330Z,80.23
2022-11-29T01:24:22.345Z,80.53
2022-11-29T01:26:49.023Z,80.46
2022-11-29T01:29:15.781Z,80.68
2022-11-29T01:31:42.432Z,80.43
2022-11-29T01:34:10.635Z,80.09
2022-11-29T01:36:37.350Z,81.37
2022-11-29T01:39:04.677Z,81.23
2022-11-29T01:41:32.655Z,81.04
2022-11-29T01:44:07.142Z,80.61
2022-11-29T01:46:38.538Z,80.28
2022-11-29T01:49:16.184Z,80.46
2022-11-29T01:51:45.725Z,80.87
2022-11-29T01:54:12.457Z,81.00
2022-11-29T01:56:39.161Z,81.77
2022-11-29T01:59:10.673Z,81.38
2022-11-29T02:01:37.385Z,81.67
2022-11-29T02:04:04.191Z,80.99
2022-11-29T02:06:30.846Z,81.12
2022-11-29T02:08:57.616Z,81.32
2022-11-29T02:11:39.454Z,81.18
2022-11-29T02:14:38.508Z,81.10
2022-11-29T02:17:16.670Z,80.20
2022-11-29T02:20:01.983Z,80.76
2022-11-29T02:22:46.811Z,81.11
2022-11-29T02:25:13.314Z,81.17
2022-11-29T02:28:09.413Z,81.21
2022-11-29T02:30:44.890Z,81.54
2022-11-29T02:33:35.773Z,81.25
2022-11-29T02:36:35.901Z,81.62
2022-11-29T02:39:36.261Z,80.99
2022-11-29T02:42:18.352Z,81.42
2022-11-29T02:45:02.550Z,80.88
2022-11-29T02:48:08.687Z,80.81
2022-11-29T02:50:44.000Z,81.21
2022-11-29T02:53:33.321Z,81.47
2022-11-29T02:56:09.030Z,82.41
2022-11-29T02:58:48.575Z,82.51
2022-11-29T03:01:23.716Z,81.69
2022-11-29T03:04:08.989Z,81.89
2022-11-29T03:06:50.757Z,81.62
2022-11-29T03:09:55.616Z,82.22
2022-11-29T03:12:40.080Z,82.25
2022-11-29T03:15:33.346Z,81.92
2022-11-29T03:18:10.996Z,81.96
2022-11-29T03:20:49.749Z,81.51
2022-11-29T03:23:31.234Z,81.07
2022-11-29T03:26:04.734Z,81.67
2022-11-29T03:28:37.701Z,82.06
2022-11-29T03:31:20.893Z,81.68
2022-11-29T03:34:15.112Z,81.99
2022-11-29T03:37:07.094Z,81.98
2022-11-29T03:39:45.559Z,82.41
2022-11-29T03:42:16.216Z,82.83
2022-11-29T03:44:51.313Z,82.96
2022-11-29T03:47:22.087Z,82.08
2022-11-29T03:49:52.682Z,83.04
2022-11-29T03:52:38.142Z,83.04
2022-11-29T03:55:45.373Z,81.70
2022-11-29T03:58:25.074Z,82.41
2022-11-29T04:01:16.179Z,82.57
2022-11-29T04:04:21.041Z,82.98
2022-11-29T04:06:59.669Z,82.75
2022-11-29T04:09:33.821Z,82.67
2022-11-29T04:12:25.145Z,82.38
2022-11-29T04:15:17.575Z,82.52
2022-11-29T04:18:02.840Z,82.64
2022-11-29T04:21:10.289Z,82.24
2022-11-29T04:24:04.708Z,82.48
2022-11-29T04:26:35.183Z,81.87
2022-11-29T04:29:08.119Z,82.31
2022-11-29T04:31:47.190Z,82.13
2022-11-29T04:35:05.111Z,82.21
2022-11-29T04:37:59.531Z,82.86
2022-11-29T04:40:41.155Z,83.69
2022-11-29T04:43:15.747Z,83.46
2022-11-29T04:46:27.736Z,82.75
2022-11-29T04:49:09.632Z,82.97
2022-11-29T04:52:03.834Z,83.22
2022-11-29T04:54:35.293Z,83.82
2022-11-29T04:57:04.695Z,83.86
2022-11-29T05:00:00.103Z,83.55
2022-11-29T05:02:41.875Z,83.67
2022-11-29T05:05:21.803Z,83.17
2022-11-29T05:07:52.522Z,82.82
2022-11-29T05:10:23.021Z,83.73
2022-11-29T05:13:12.577Z,83.16
2022-11-29T05:16:00.638Z,82.62
2022-11-29T05:18:55.079Z,82.34
2022-11-29T05:21:33.649Z,82.57
2022-11-29T05:24:17.638Z,82.80
2022-11-29T05:26:57.588Z,82.51
2022-11-29T05:29:27.261Z,82.55
2022-11-29T05:32:22.171Z,82.58
2022-11-29T05:35:27.150Z,83.37
2022-11-29T05:37:55.135Z,83.43
2022-11-29T05:40:43.475Z,83.24
2022-11-29T05:43:15.454Z,83.33
2022-11-29T05:46:00.321Z,82.95
2022-11-29T05:48:37.518Z,82.84
2022-11-29T05:51:04.136Z,82.40
2022-11-29T05:54:14.910Z,82.42
2022-11-29T05:57:03.399Z,82.05
2022-11-29T05:59:30.386Z,82.52
2022-11-29T06:02:23.884Z,82.19
2022-11-29T06:05:28.616Z,81.66
2022-11-29T06:08:04.380Z,81.28
2022-11-29T06:10:33.037Z,80.95
2022-11-29T06:13:38.369Z,80.81
2022-11-29T06:16:26.084Z,81.00
2022-11-29T06:19:20.205Z,80.72
2022-11-29T06:22:01.855Z,81.59
2022-11-29T06:24:53.514Z,81.08
2022-11-29T06:27:21.887Z,81.18
2022-11-29T06:30:06.991Z,81.60
2022-11-29T06:33:06.311Z,81.49
2022-11-29T06:35:59.649Z,81.21
2022-11-29T06:38:27.960Z,81.33
2022-11-29T06:41:01.376Z,81.15
2022-11-29T06:43:28.815Z,81.33
2022-11-29T06:46:18.601Z,81.89
2022-11-29T06:49:06.876Z,82.07
2022-11-29T06:51:36.551Z,82.18
2022-11-29T06:54:30.140Z,82.99
2022-11-29T06:57:08.884Z,82.98
2022-11-29T07:00:03.801Z,83.15
2022-11-29T07:02:52.428Z,83.42
2022-11-29T07:05:22.063Z,82.86
2022-11-29T07:07:49.003Z,83.68
2022-11-29T07:10:19.323Z,83.38
2022-11-29T07:12:46.636Z,82.96
2022-11-29T07:15:15.739Z,83.21
2022-11-29T07:17:54.261Z,83.35
2022-11-29T07:20:48.740Z,83.05
2022-11-29T07:23:38.579Z,82.08
2022-11-29T07:26:19.424Z,82.55
2022-11-29T07:29:04.778Z,82.35
2022-11-29T07:31:40.101Z,82.23
2022-11-29T07:34:44.660Z,82.35
2022-11-29T07:37:23.435Z,82.91
2022-11-29T07:40:11.868Z,83.19
2022-11-29T07:42:50.629Z,82.76
2022-11-29T07:45:21.625Z,81.92
2022-11-29T07:47:48.838Z,82.70
2022-11-29T07:50:15.810Z,82.89
2022-11-29T07:52:42.526Z,83.04
2022-11-29T07:55:18.877Z,81.88
2022-11-29T07:57:46.173Z,81.80
2022-11-29T08:00:13.925Z,81.57
2022-11-29T08:02:40.759Z,82.42
2022-11-29T08:05:08.089Z,82.46
2022-11-29T08:07:35.648Z,82.89
2022-11-29T08:10:02.815Z,82.77
2022-11-29T08:12:29.550Z,81.91
2022-11-29T08:14:56.228Z,82.34
2022-11-29T08:17:22.944Z,81.76
2022-11-29T08:19:49.550Z,83.98
2022-11-29T08:22:16.326Z,84.52
2022-11-29T08:24:43.345Z,83.65
2022-11-29T08:27:10.197Z,83.74
2022-11-29T08:29:36.990Z,83.61
2022-11-29T08:32:03.814Z,82.58
2022-11-29T08:34:31.842Z,82.85
2022-11-29T08:36:58.636Z,83.01
2022-11-29T08:39:25.319Z,83.23
2022-11-29T08:41:51.993Z,82.97
2022-11-29T08:44:18.690Z,83.80
2022-11-29T08:47:03.952Z,83.31
2022-11-29T08:49:30.635Z,83.21
2022-11-29T08:52:17.210Z,83.27
2022-11-29T08:54:44.315Z,82.88
2022-11-29T08:57:38.514Z,83.58
2022-11-29T08:59:57.979Z,82.94
2022-11-29T09:02:24.678Z,82.79
2022-11-29T09:04:51.340Z,83.03
2022-11-29T09:07:18.103Z,83.22
2022-11-29T09:09:44.724Z,82.39
2022-11-29T09:12:11.335Z,81.84
2022-11-29T09:14:38.011Z,81.20
2022-11-29T09:17:04.721Z,82.38
2022-11-29T09:19:31.349Z,82.01
2022-11-29T09:21:57.944Z,81.84
2022-11-29T09:24:24.694Z,81.90
2022-11-29T09:26:51.478Z,82.19
2022-11-29T09:29:18.156Z,82.21
2022-11-29T09:31:47.534Z,81.53
2022-11-29T09:34:15.290Z,82.57
2022-11-29T09:36:44.037Z,82.49
2022-11-29T09:39:12.497Z,81.70
2022-11-29T09:41:47.007Z,81.98
2022-11-29T09:44:36.569Z,82.92
2022-11-29T09:47:26.219Z,82.96
2022-11-29T09:49:59.672Z,81.05
2022-11-29T09:52:29.280Z,81.82
2022-11-29T09:55:33.302Z,81.55
2022-11-29T09:58:00.079Z,81.02
2022-11-29T10:00:26.707Z,81.80
2022-11-29T10:02:56.764Z,82.97
2022-11-29T10:05:30.096Z,83.04
2022-11-29T10:08:00.442Z,82.87
2022-11-29T10:10:44.728Z,82.06
2022-11-29T10:13:21.609Z,82.40
2022-11-29T10:15:50.563Z,82.15
2022-11-29T10:18:21.813Z,82.68
2022-11-29T10:20:49.737Z,83.50
2022-11-29T10:23:22.243Z,82.98
2022-11-29T10:25:58.717Z,83.30
2022-11-29T10:28:27.438Z,83.21
2022-11-29T10:30:54.742Z,83.24
2022-11-29T10:33:30.112Z,84.01
2022-11-29T10:35:59.319Z,82.06
2022-11-29T10:38:31.279Z,81.23
2022-11-29T10:41:03.158Z,81.82
2022-11-29T10:43:30.401Z,81.73
2022-11-29T10:45:57.372Z,82.15
2022-11-29T10:48:27.452Z,82.10
2022-11-29T10:50:54.222Z,83.23
2022-11-29T10:53:30.786Z,83.60
2022-11-29T10:55:57.362Z,82.77
2022-11-29T10:58:29.031Z,82.30
2022-11-29T11:01:08.062Z,83.23
2022-11-29T11:03:41.462Z,83.33
2022-11-29T11:06:18.848Z,82.80
2022-11-29T11:08:52.118Z,82.56
2022-11-29T11:11:29.135Z,82.82
2022-11-29T11:14:26.136Z,82.38
2022-11-29T11:16:54.032Z,83.84
2022-11-29T11:19:31.735Z,85.16
2022-11-29T11:21:59.582Z,83.57
2022-11-29T11:24:44.640Z,84.12
2022-11-29T11:27:11.568Z,84.84
2022-11-29T11:29:42.395Z,84.15
2022-11-29T11:32:19.303Z,85.30
2022-11-29T11:34:56.961Z,85.87
2022-11-29T11:37:33.346Z,84.71
2022-11-29T11:40:01.520Z,84.18
2022-11-29T11:42:38.356Z,83.27
2022-11-29T11:45:11.177Z,84.83
2022-11-29T11:47:45.033Z,84.79
2022-11-29T11:50:13.662Z,84.26
2022-11-29T11:52:50.815Z,84.19
2022-11-29T11:55:29.830Z,85.68
2022-11-29T11:58:10.164Z,86.36
2022-11-29T12:01:04.663Z,86.61
2022-11-29T12:03:39.963Z,86.60
2022-11-29T12:06:16.810Z,86.24
2022-11-29T12:08:43.623Z,85.82
2022-11-29T12:11:11.559Z,86.72
2022-11-29T12:13:40.139Z,86.69
2022-11-29T12:16:19.242Z,85.93
2022-11-29T12:18:50.162Z,85.61
2022-11-29T12:21:18.472Z,85.39
2022-11-29T12:24:22.602Z,84.90
2022-11-29T12:26:57.019Z,84.34
2022-11-29T12:29:24.825Z,85.38
2022-11-29T12:31:55.252Z,85.60
2022-11-29T12:34:22.791Z,85.23
2022-11-29T12:37:04.840Z,84.44
2022-11-29T12:39:53.600Z,84.61
2022-11-29T12:42:36.036Z,84.55
2022-11-29T12:45:20.797Z,84.18
2022-11-29T12:48:11.058Z,84.90
2022-11-29T12:50:39.682Z,83.38
2022-11-29T12:53:44.223Z,82.55
2022-11-29T12:56:27.267Z,83.80
2022-11-29T12:59:02.481Z,84.67
2022-11-29T13:01:51.240Z,82.84
2022-11-29T13:04:41.129Z,83.12
2022-11-29T13:07:26.583Z,83.51
2022-11-29T13:10:16.344Z,83.82
2022-11-29T13:12:47.825Z,84.19
2022-11-29T13:15:19.499Z,84.60
2022-11-29T13:18:24.693Z,83.95
2022-11-29T13:21:00.903Z,83.53
2022-11-29T13:23:46.235Z,83.65
2022-11-29T13:26:19.525Z,83.64
2022-11-29T13:28:49.298Z,83.79
2022-11-29T13:31:18.606Z,83.59
2022-11-29T13:33:54.451Z,83.97
2022-11-29T13:36:45.759Z,83.84
2022-11-29T13:39:41.450Z,83.04
2022-11-29T13:42:14.045Z,83.99
2022-11-29T13:44:46.711Z,83.67
2022-11-29T13:47:14.943Z,83.44
2022-11-29T13:49:53.667Z,83.57
2022-11-29T13:52:40.610Z,84.02
2022-11-29T13:55:14.562Z,84.09
2022-11-29T13:58:15.541Z,84.13
2022-11-29T14:00:43.982Z,84.86
2022-11-29T14:03:28.953Z,85.84
2022-11-29T14:06:34.290Z,84.52
2022-11-29T14:09:22.628Z,84.57
2022-11-29T14:11:54.129Z,84.07
2022-11-29T14:14:48.707Z,84.30
2022-11-29T14:17:37.603Z,84.37
2022-11-29T14:20:39.585Z,84.90
2022-11-29T14:23:06.410Z,84.94
2022-11-29T14:28:22.991Z,84.53
2022-11-29T14:30:50.401Z,84.83
2022-11-29T14:33:23.097Z,84.94
2022-11-29T14:35:56.768Z,84.92
2022-11-29T14:38:32.218Z,85.05
2022-11-29T14:41:00.403Z,85.25
2022-11-29T14:43:33.755Z,85.17
2022-11-29T14:46:15.732Z,85.15
2022-11-29T14:48:55.458Z,85.11
2022-11-29T14:51:26.579Z,84.56
2022-11-29T14:54:12.259Z,84.97
2022-11-29T14:56:42.512Z,85.31
2022-11-29T14:59:51.464Z,85.03
2022-11-29T15:02:38.669Z,84.46
2022-11-29T15:05:18.798Z,84.32
2022-11-29T15:07:57.344Z,83.94
2022-11-29T15:10:25.865Z,84.75
2022-11-29T15:12:52.560Z,84.87
2022-11-29T15:15:27.095Z,84.88
2022-11-29T15:18:02.805Z,84.13
2022-11-29T15:20:58.508Z,84.53
2022-11-29T15:23:25.144Z,84.17
2022-11-29T15:25:52.927Z,84.29
2022-11-29T15:28:29.270Z,84.53
2022-11-29T15:31:06.710Z,84.53
2022-11-29T15:33:34.187Z,84.98
2022-11-29T15:36:08.437Z,85.22
2022-11-29T15:38:49.090Z,84.63
2022-11-29T15:41:35.356Z,85.05
2022-11-29T15:44:05.799Z,84.37
2022-11-29T15:46:34.114Z,84.90
2022-11-29T15:49:26.248Z,85.21
2022-11-29T15:52:08.423Z,85.42
2022-11-29T15:55:02.329Z,85.73
2022-11-29T15:57:46.746Z,85.11
2022-11-29T16:00:24.230Z,85.83
2022-11-29T16:03:01.431Z,85.89
2022-11-29T16:05:31.941Z,85.59
2022-11-29T16:08:05.815Z,85.97
2022-11-29T16:10:36.169Z,86.04
2022-11-29T16:13:07.892Z,85.21
2022-11-29T16:15:37.670Z,85.30
2022-11-29T16:18:14.887Z,85.48
2022-11-29T16:20:41.562Z,85.57
2022-11-29T16:23:08.209Z,85.17
2022-11-29T16:25:37.773Z,86.05
2022-11-29T16:28:05.993Z,84.84
2022-11-29T16:30:32.742Z,84.90
2022-11-29T16:32:59.669Z,84.67
2022-11-29T16:35:29.912Z,84.53
2022-11-29T16:37:56.505Z,84.85
2022-11-29T16:40:30.280Z,85.28
2022-11-29T16:43:02.987Z,85.82
2022-11-29T16:45:39.551Z,86.32
2022-11-29T16:48:30.157Z,85.80
2022-11-29T16:51:14.942Z,85.88
2022-11-29T16:53:42.434Z,85.80
2022-11-29T16:56:12.847Z,85.65
2022-11-29T16:59:20.677Z,85.79
2022-11-29T17:01:30.853Z,86.92
2022-11-29T17:03:58.233Z,86.90
2022-11-29T17:06:25.002Z,86.50
2022-11-29T17:08:52.149Z,85.85
2022-11-29T17:11:18.930Z,86.40
2022-11-29T17:13:46.373Z,86.71
2022-11-29T17:16:17.651Z,86.71
2022-11-29T17:18:45.224Z,86.58
2022-11-29T17:21:25.739Z,86.76
2022-11-29T17:23:52.536Z,87.08
2022-11-29T17:26:19.648Z,86.90
2022-11-29T17:28:47.644Z,86.52
2022-11-29T17:31:21.676Z,86.99
2022-11-29T17:33:48.301Z,86.87
2022-11-29T17:36:16.710Z,87.18
2022-11-29T17:38:44.114Z,87.02
2022-11-29T17:41:11.658Z,86.78
2022-11-29T17:43:38.438Z,86.41
2022-11-29T17:46:09.736Z,86.06
2022-11-29T17:48:36.686Z,86.32
2022-11-29T17:51:06.929Z,86.45
2022-11-29T17:53:40.094Z,86.90
2022-11-29T17:56:14.169Z,86.60
2022-11-29T17:58:40.839Z,86.29
2022-11-29T18:01:12.522Z,85.87
2022-11-29T18:03:40.437Z,86.50
2022-11-29T18:06:11.205Z,86.59
2022-11-29T18:08:39.123Z,86.48
2022-11-29T18:11:46.867Z,85.91
2022-11-29T18:14:16.006Z,86.92
2022-11-29T18:16:43.005Z,86.46
2022-11-29T18:19:12.208Z,86.43
2022-11-29T18:21:39.029Z,87.05
2022-11-29T18:24:06.728Z,86.54
2022-11-29T18:26:33.908Z,86.34
2022-11-29T18:29:00.648Z,86.54
2022-11-29T18:31:31.887Z,86.42
2022-11-29T18:34:00.189Z,87.30
2022-11-29T18:36:31.574Z,87.36
2022-11-29T18:38:59.897Z,86.81
2022-11-29T18:41:28.266Z,86.26
2022-11-29T18:44:02.216Z,86.19
2022-11-29T18:46:32.966Z,87.58
2022-11-29T18:49:01.103Z,87.66
2022-11-29T18:51:28.659Z,87.06
2022-11-29T18:53:55.437Z,86.85
2022-11-29T18:56:23.189Z,86.41
2022-11-29T18:59:00.470Z,87.07
2022-11-29T19:01:28.853Z,86.78
2022-11-29T19:03:56.973Z,86.76
2022-11-29T19:06:25.323Z,86.53
2022-11-29T19:08:52.377Z,86.89
2022-11-29T19:11:20.787Z,86.71
2022-11-29T19:13:47.514Z,86.37
2022-11-29T19:16:16.464Z,86.04
2022-11-29T19:18:43.332Z,86.88
2022-11-29T19:21:11.890Z,87.04
2022-11-29T19:23:38.576Z,86.75
2022-11-29T19:26:14.792Z,86.67
2022-11-29T19:28:42.665Z,87.00
2022-11-29T19:31:09.692Z,86.86
2022-11-29T19:33:37.021Z,86.53
2022-11-29T19:36:24.492Z,86.25
2022-11-29T19:38:53.824Z,86.56
2022-11-29T19:41:26.160Z,86.57
2022-11-29T19:43:52.891Z,86.67
2022-11-29T19:46:26.613Z,87.47
2022-11-29T19:48:54.508Z,87.05
2022-11-29T19:51:21.379Z,86.43
2022-11-29T19:53:48.107Z,86.84
2022-11-29T19:56:15.846Z,86.91
2022-11-29T19:58:43.030Z,87.14
2022-11-29T20:01:11.839Z,86.18
2022-11-29T20:03:38.689Z,86.51
2022-11-29T20:06:05.333Z,86.93
2022-11-29T20:08:32.297Z,86.54
2022-11-29T20:11:12.624Z,87.49
2022-11-29T20:13:39.557Z,87.67
2022-11-29T20:16:09.653Z,86.52
2022-11-29T20:18:37.626Z,87.16
2022-11-29T20:21:14.581Z,87.17
2022-11-29T20:23:41.585Z,87.11
2022-11-29T20:26:16.056Z,86.46
2022-11-29T20:28:43.202Z,85.70
2022-11-29T20:31:13.127Z,85.85
2022-11-29T20:33:40.899Z,86.05
2022-11-29T20:36:17.816Z,86.35
2022-11-29T20:38:53.415Z,86.14
2022-11-29T20:41:40.678Z,86.30
2022-11-29T20:44:08.303Z,86.97
2022-11-29T20:46:35.121Z,86.64
2022-11-29T20:49:06.524Z,87.06
2022-11-29T20:51:58.554Z,86.69
2022-11-29T20:54:25.205Z,86.90
2022-11-29T20:56:51.909Z,87.20
2022-11-29T20:59:18.538Z,86.63
2022-11-29T21:01:45.250Z,86.61
2022-11-29T21:04:11.938Z,86.85
2022-11-29T21:06:38.920Z,86.75
2022-11-29T21:09:05.876Z,86.85
2022-11-29T21:11:32.780Z,87.67
2022-11-29T21:14:03.473Z,88.01
2022-11-29T21:16:31.278Z,87.97
2022-11-29T21:19:00.111Z,87.01
2022-11-29T21:21:52.941Z,86.92
2022-11-29T21:24:22.544Z,86.54
2022-11-29T21:26:52.508Z,86.88
2022-11-29T21:29:20.489Z,86.62
2022-11-29T21:31:48.421Z,86.09
2022-11-29T21:34:15.174Z,86.35
2022-11-29T21:36:41.914Z,86.72
2022-11-29T21:39:13.275Z,86.79
2022-11-29T21:41:39.883Z,86.89
2022-11-29T21:44:07.922Z,86.41
2022-11-29T21:46:35.298Z,86.74
2022-11-29T21:49:02.022Z,85.75
2022-11-29T21:51:28.671Z,86.66
2022-11-29T21:53:55.264Z,85.76
2022-11-29T21:56:22.106Z,85.23
2022-11-29T21:58:48.764Z,85.08
2022-11-29T22:01:17.262Z,86.03
2022-11-29T22:03:44.016Z,86.80
2022-11-29T22:06:12.650Z,86.82
2022-11-29T22:08:40.501Z,87.10
2022-11-29T22:11:09.614Z,87.16
2022-11-29T22:13:37.076Z,86.09
2022-11-29T22:16:10.471Z,86.61
2022-11-29T22:18:37.216Z,86.87
2022-11-29T22:21:05.538Z,87.91
2022-11-29T22:23:32.423Z,88.01
2022-11-29T22:26:06.509Z,88.46
2022-11-29T22:28:33.324Z,88.89
2022-11-29T22:31:03.721Z,87.62
2022-11-29T22:33:30.645Z,86.93
2022-11-29T22:35:57.394Z,88.58
2022-11-29T22:38:24.107Z,88.94
2022-11-29T22:40:50.824Z,88.49
2022-11-29T22:43:17.553Z,87.36
2022-11-29T22:45:44.138Z,87.08
2022-11-29T22:48:10.830Z,86.18
2022-11-29T22:50:37.540Z,85.53
2022-11-29T22:53:04.138Z,84.61
2022-11-29T22:55:30.825Z,85.46
2022-11-29T22:57:57.452Z,86.87
2022-11-29T23:00:24.112Z,86.55
2022-11-29T23:02:50.803Z,85.76
2022-11-29T23:05:17.433Z,85.75
2022-11-29T23:07:46.712Z,85.44
2022-11-29T23:10:13.388Z,85.87
2022-11-29T23:12:40.031Z,85.79
2022-11-29T23:15:06.874Z,86.01
2022-11-29T23:17:33.500Z,86.60
2022-11-29T23:20:00.133Z,85.90
2022-11-29T23:22:26.771Z,86.20
2022-11-29T23:24:53.338Z,85.75
2022-11-29T23:27:19.929Z,85.38
2022-11-29T23:29:46.526Z,85.64
2022-11-29T23:32:13.202Z,86.01
2022-11-29T23:34:39.837Z,85.54
2022-11-29T23:37:06.474Z,86.10
2022-11-29T23:39:33.248Z,86.13
2022-11-29T23:41:59.849Z,86.08
2022-11-29T23:44:26.490Z,86.09
2022-11-29T23:46:53.179Z,86.60
2022-11-29T23:49:19.799Z,87.19
2022-11-29T23:51:46.406Z,87.08
2022-11-29T23:54:13.086Z,86.20
2022-11-29T23:56:39.714Z,86.30
2022-11-29T23:59:06.498Z,86.28
